Time;durP1;ratioP1;P1;durP2;ratioP2;P2;SDS_P1;SDS_P2;PMS_P1;PMS_P2;Temp;Humidity;BMP_temperature;BMP_pressure;BME280_temperature;BME280_humidity;BME280_pressure;Samples;Min_cycle;Max_cycle;Signal;HPM_P1;HPM_P2
2021/06/29 05:12:26;;;;;;;2.58;2.38;;;;;;;21.51;74.36;95550.66;4783734;29;20211;-87
2021/06/29 05:19:23;;;;;;;;;;;;;;;;;;;;;
2021/06/29 05:46:34;;;;;;;3.10;2.60;;;;;;;21.34;76.67;95587.41;5324466;22;20241;-89
2021/06/29 05:50:03;;;;;;;;;;;;;;;;;;;;;
2021/06/29 05:59:37;;;;;;;2.72;2.47;;;;;;;21.14;78.66;95589.75;5026703;28;20776;-87
2021/06/29 06:29:18;;;;;;;4.15;3.60;;;;;;;21.33;80.44;95570.09;4953588;26;20218;-88
2021/06/29 06:39:24;;;;;;;2.13;1.92;;;;;;;21.20;78.60;95554.75;4890494;29;20199;-89
2021/06/29 06:41:53;;;;;;;3.65;2.20;;;;;;;21.30;78.23;95549.63;4841221;29;20211;-87
2021/06/29 06:57:05;;;;;;;2.30;2.10;;;;;;;21.49;78.07;95519.47;5146466;22;20240;-88
2021/06/29 07:04:08;;;;;;;2.30;2.08;;;;;;;21.43;76.17;95499.47;4834070;29;20221;-86
2021/06/29 07:21:28;;;;;;;2.20;2.00;;;;;;;21.70;75.70;95473.28;4942540;29;20720;-87
2021/06/29 07:45:09;;;;;;;1.90;1.80;;;;;;;22.23;68.55;95409.47;4829274;29;20721;-87
2021/06/29 08:41:34;;;;;;;;;;;;;;;;;;;;;
2021/06/29 08:56:40;;;;;;;1.30;1.30;;;;;;;25.10;53.76;95301.09;4965514;28;20712;-87
2021/06/29 08:59:26;;;;;;;1.63;1.45;;;;;;;25.20;52.33;95292.34;5012163;28;20203;-87
2021/06/29 09:05:43;;;;;;;1.60;1.30;;;;;;;25.30;52.58;95302.00;5009931;28;20277;-86
2021/06/29 09:08:48;;;;;;;1.40;1.30;;;;;;;25.26;48.95;95299.13;4912708;29;20301;-89
2021/06/29 09:11:51;;;;;;;1.30;1.20;;;;;;;25.55;48.78;95290.47;4995776;28;20264;-87
2021/06/29 09:15:24;;;;;;;1.42;1.33;;;;;;;25.64;47.75;95283.53;5011744;28;20740;-87
2021/06/29 09:17:56;;;;;;;1.50;1.40;;;;;;;25.38;50.77;95283.75;5010909;28;20752;-89
2021/06/29 09:24:35;;;;;;;1.63;1.52;;;;;;;25.46;49.08;95280.50;4906306;29;20420;-90
2021/06/29 09:27:13;;;;;;;1.30;1.20;;;;;;;25.48;46.98;95267.84;4949773;29;20228;-89
2021/06/29 09:29:50;;;;;;;1.63;1.52;;;;;;;25.68;49.56;95260.84;4949946;29;20213;-89
2021/06/29 09:44:58;;;;;;;2.30;1.30;;;;;;;26.15;44.54;95226.53;4992049;28;20199;-86
2021/06/29 09:47:51;;;;;;;;;;;;;;;;;;;;;
2021/06/29 09:55:01;;;;;;;1.48;1.25;;;;;;;26.42;45.06;95219.88;4984950;28;20221;-89
2021/06/29 09:58:20;;;;;;;1.50;1.35;;;;;;;26.51;43.35;95212.91;4997812;28;20223;-89
2021/06/29 10:32:31;;;;;;;2.58;1.45;;;;;;;27.34;39.45;95145.22;1410240;22;20496;-85
2021/06/29 10:35:14;;;;;;;1.30;1.20;;;;;;;27.56;39.12;95141.91;5045198;28;20680;-85
2021/06/29 10:47:44;;;;;;;1.40;1.30;;;;;;;27.86;41.58;95099.00;5105181;22;20232;-85
2021/06/29 10:50:18;;;;;;;2.00;1.40;;;;;;;27.81;40.66;95099.13;5030423;28;20236;-86
2021/06/29 10:53:06;;;;;;;1.50;1.40;;;;;;;27.74;40.64;95093.44;5029912;28;20278;-85
2021/06/29 10:58:55;;;;;;;3.78;3.35;;;;;;;27.81;39.40;95084.03;5014627;28;20221;-87
2021/06/29 11:01:44;;;;;;;1.45;1.35;;;;;;;27.85;38.09;95078.91;5044166;28;20233;-88
2021/06/29 11:04:12;;;;;;;1.20;1.10;;;;;;;27.75;38.02;95074.63;5038846;28;20201;-88
2021/06/29 11:14:08;;;;;;;1.50;1.40;;;;;;;28.16;41.41;95063.91;5034646;28;20588;-86
2021/06/29 11:17:08;;;;;;;1.40;1.30;;;;;;;28.03;42.37;95056.81;5017798;28;20227;-89
2021/06/29 11:20:12;;;;;;;1.67;1.58;;;;;;;27.93;43.36;95054.38;5021941;28;20350;-88
2021/06/29 11:23:16;;;;;;;1.50;1.40;;;;;;;27.87;43.01;95050.31;5037463;28;20201;-87
2021/06/29 11:25:46;;;;;;;1.50;1.40;;;;;;;27.80;43.07;95041.97;5030165;28;20248;-88
2021/06/29 11:28:17;;;;;;;1.52;1.42;;;;;;;27.73;43.96;95046.88;5038217;28;20220;-87
2021/06/29 11:31:06;;;;;;;1.63;1.38;;;;;;;27.83;41.63;95046.69;5036457;28;20202;-88
2021/06/29 11:33:44;;;;;;;2.53;1.25;;;;;;;27.75;40.85;95039.44;5037028;28;20296;-86
2021/06/29 11:36:40;;;;;;;2.13;1.92;;;;;;;27.87;42.19;95029.13;5036806;28;20210;-86
2021/06/29 11:39:36;;;;;;;1.33;1.23;;;;;;;27.84;42.62;95025.22;5036093;28;20227;-87
2021/06/29 11:46:34;;;;;;;;;;;;;;;;;;;;;
2021/06/29 11:49:13;;;;;;;2.83;1.40;;;;;;;28.09;42.33;94992.09;4961031;28;20246;-85
2021/06/29 11:51:57;;;;;;;2.53;1.50;;;;;;;28.22;43.18;94995.78;5015216;28;20206;-84
2021/06/29 11:54:38;;;;;;;1.67;1.58;;;;;;;28.02;43.59;94985.66;5024060;28;20292;-84
2021/06/29 11:57:21;;;;;;;1.50;1.40;;;;;;;28.22;43.24;94984.41;5021885;28;20245;-84
2021/06/29 11:59:59;;;;;;;2.05;1.70;;;;;;;28.23;44.34;94967.44;5031449;28;20198;-84
2021/06/29 12:02:31;;;;;;;1.70;1.60;;;;;;;28.18;43.19;94981.53;5033556;28;20273;-84
2021/06/29 12:05:04;;;;;;;1.52;1.42;;;;;;;28.28;41.95;94981.34;5032123;28;20191;-87
2021/06/29 12:07:54;;;;;;;4.65;2.33;;;;;;;28.47;42.16;94958.06;5030519;28;20280;-84
2021/06/29 12:10:24;;;;;;;10.90;10.00;;;;;;;28.57;42.39;94959.66;5034189;28;20835;-83
2021/06/29 12:13:37;;;;;;;2.50;1.90;;;;;;;28.70;43.13;94958.00;5034376;28;20202;-84
2021/06/29 12:16:04;;;;;;;1.83;1.60;;;;;;;28.52;42.52;94952.63;5015820;28;20766;-84
2021/06/29 12:19:26;;;;;;;1.80;1.70;;;;;;;28.35;43.96;94936.66;5034491;28;20226;-85
2021/06/29 12:25:36;;;;;;;1.45;1.35;;;;;;;28.38;43.26;94927.31;4987255;28;20238;-86
2021/06/29 12:28:08;;;;;;;1.73;1.63;;;;;;;28.53;43.09;94917.09;5019815;28;20221;-85
2021/06/29 12:30:43;;;;;;;1.60;1.50;;;;;;;28.67;44.74;94909.03;5035930;28;20265;-88
2021/06/29 12:33:29;;;;;;;2.50;1.67;;;;;;;28.88;43.84;94906.63;5033544;28;20214;-87
2021/06/29 12:36:00;;;;;;;2.15;1.55;;;;;;;29.01;44.06;94899.66;5031074;28;20289;-88
2021/06/29 12:38:31;;;;;;;1.73;1.63;;;;;;;29.12;43.40;94893.75;5034694;28;20317;-89
2021/06/29 12:41:00;;;;;;;2.17;1.50;;;;;;;29.16;43.02;94883.31;5033922;28;20197;-88
2021/06/29 12:43:34;;;;;;;6.03;1.50;;;;;;;29.12;43.15;94874.41;5033616;28;20213;-87
2021/06/29 12:46:19;;;;;;;2.47;1.70;;;;;;;29.07;43.65;94872.69;5031513;28;20300;-87
2021/06/29 12:49:04;;;;;;;1.70;1.60;;;;;;;28.82;43.18;94878.75;5035014;28;20214;-84
2021/06/29 12:51:33;;;;;;;1.60;1.50;;;;;;;28.70;44.09;94868.69;5035407;28;20198;-85
2021/06/29 12:54:03;;;;;;;1.90;1.60;;;;;;;28.60;43.95;94858.38;5035456;28;20207;-84
2021/06/29 12:56:35;;;;;;;5.55;5.05;;;;;;;28.78;44.30;94859.22;5033569;28;20320;-85
2021/06/29 12:59:09;;;;;;;2.33;1.40;;;;;;;28.54;44.31;94854.31;5034083;28;20218;-84
2021/06/29 13:01:38;;;;;;;1.73;1.52;;;;;;;28.74;44.00;94845.78;5032379;28;20210;-87
2021/06/29 13:04:16;;;;;;;1.85;1.60;;;;;;;28.34;44.24;94837.13;5031285;28;20202;-88
2021/06/29 13:06:45;;;;;;;2.30;1.40;;;;;;;27.99;45.64;94836.16;5029304;28;20638;-88
2021/06/29 13:09:14;;;;;;;1.83;1.60;;;;;;;28.10;45.32;94834.81;5031897;28;20202;-88
2021/06/29 13:11:53;;;;;;;4.13;1.65;;;;;;;28.25;46.32;94835.53;5033983;28;20206;-86
2021/06/29 13:14:24;;;;;;;1.60;1.50;;;;;;;28.62;45.67;94832.38;5034425;28;20198;-84
2021/06/29 13:17:00;;;;;;;1.60;1.50;;;;;;;28.71;44.89;94821.78;5035657;28;20768;-84
2021/06/29 13:19:47;;;;;;;2.65;1.63;;;;;;;28.65;44.44;94817.72;5034293;28;20222;-88
2021/06/29 13:22:49;;;;;;;2.17;1.67;;;;;;;28.65;46.05;94799.19;5033859;28;20206;-87
2021/06/29 13:25:32;;;;;;;1.85;1.70;;;;;;;28.92;45.52;94800.78;5035494;28;20236;-89
2021/06/29 13:28:09;;;;;;;1.65;1.55;;;;;;;28.59;44.47;94797.75;5033116;28;20198;-86
2021/06/29 13:30:39;;;;;;;2.40;2.30;;;;;;;28.07;45.51;94787.00;5037135;28;20364;-86
2021/06/29 13:33:13;;;;;;;7.47;6.88;;;;;;;27.71;46.43;94790.56;5034995;28;20228;-84
2021/06/29 13:35:43;;;;;;;1.50;1.40;;;;;;;27.26;47.53;94816.25;5028636;28;20240;-85
2021/06/29 13:38:11;;;;;;;2.45;1.50;;;;;;;27.06;48.29;94830.72;5036354;28;20286;-84
2021/06/29 13:40:50;;;;;;;1.63;1.52;;;;;;;26.97;48.20;94821.13;5037114;28;20313;-85
2021/06/29 13:43:25;;;;;;;1.70;1.60;;;;;;;26.73;49.08;94816.09;5037857;28;20213;-84
2021/06/29 13:45:55;;;;;;;1.95;1.80;;;;;;;26.72;50.19;94817.97;5036196;28;20221;-88
2021/06/29 13:48:28;;;;;;;3.28;1.75;;;;;;;26.80;50.35;94814.59;5037935;28;20592;-88
2021/06/29 13:50:56;;;;;;;2.13;1.60;;;;;;;26.78;50.01;94805.41;5037476;28;20202;-84
2021/06/29 13:53:32;;;;;;;2.00;1.70;;;;;;;26.73;50.38;94813.47;5032499;28;20217;-87
2021/06/29 13:56:09;;;;;;;2.40;2.17;;;;;;;26.70;51.20;94793.69;5031270;28;20230;-87
2021/06/29 13:58:41;;;;;;;2.35;1.88;;;;;;;26.59;51.17;94807.41;5032953;28;20904;-85
2021/06/29 14:01:34;;;;;;;2.17;1.92;;;;;;;26.61;51.34;94802.59;5032166;28;20256;-87
2021/06/29 14:04:04;;;;;;;1.85;1.75;;;;;;;26.56;52.39;94815.91;4944210;29;20223;-86
2021/06/29 14:06:49;;;;;;;2.75;1.83;;;;;;;26.52;52.41;94807.03;5026255;28;20230;-87
2021/06/29 14:09:18;;;;;;;2.08;1.88;;;;;;;26.43;52.40;94804.28;5034638;28;20248;-86
2021/06/29 14:11:45;;;;;;;2.00;1.90;;;;;;;26.28;52.94;94797.44;5036214;28;20206;-86
2021/06/29 14:14:17;;;;;;;2.05;1.88;;;;;;;26.23;53.49;94796.75;5036142;28;20210;-84
2021/06/29 14:17:13;;;;;;;2.00;1.90;;;;;;;26.14;53.11;94786.91;5028962;28;20230;-86
2021/06/29 14:19:39;;;;;;;2.92;1.80;;;;;;;26.13;53.13;94785.31;5031159;28;20210;-86
2021/06/29 14:22:14;;;;;;;1.80;1.70;;;;;;;26.05;53.17;94791.28;5032779;28;20210;-86
2021/06/29 14:25:11;;;;;;;1.92;1.83;;;;;;;25.92;52.83;94783.38;5029661;28;20202;-88
2021/06/29 14:28:11;;;;;;;13.60;12.40;;;;;;;25.91;52.92;94779.16;5009970;28;20209;-88
2021/06/29 14:30:53;;;;;;;9.27;8.45;;;;;;;26.02;53.28;94788.44;5009479;28;20205;-88
2021/06/29 14:33:41;;;;;;;3.00;2.80;;;;;;;26.08;53.57;94811.03;5010688;28;20271;-88
2021/06/29 14:36:40;;;;;;;2.60;2.10;;;;;;;26.13;53.58;94808.28;5010546;28;20299;-89
2021/06/29 14:39:15;;;;;;;3.92;1.90;;;;;;;26.08;53.33;94792.56;5009980;28;20233;-84
2021/06/29 14:41:45;;;;;;;2.35;1.60;;;;;;;25.96;53.80;94808.88;5009385;28;20195;-84
2021/06/29 14:44:39;;;;;;;2.38;2.15;;;;;;;25.95;54.31;94835.53;5010153;28;20230;-85
2021/06/29 14:53:21;;;;;;;1.40;1.30;;;;;;;24.89;56.26;95028.34;5029255;28;20201;-88
2021/06/29 14:55:54;;;;;;;1.27;1.10;;;;;;;23.86;62.12;95071.53;5018853;28;20238;-87
2021/06/29 14:58:23;;;;;;;2.47;1.45;;;;;;;22.98;70.51;95094.97;5028477;28;20226;-87
2021/06/29 15:00:59;;;;;;;4.30;1.40;;;;;;;22.20;73.55;95150.31;5028826;28;20259;-84
2021/06/29 15:03:27;;;;;;;4.40;1.80;;;;;;;21.31;78.45;95119.88;5028792;28;20288;-87
2021/06/29 15:06:25;;;;;;;6.25;5.18;;;;;;;20.96;81.83;95132.75;5029029;28;20257;-84
2021/06/29 15:08:58;;;;;;;3.20;1.40;;;;;;;20.91;83.16;95151.81;5027980;28;20264;-85
2021/06/29 15:11:27;;;;;;;2.67;1.02;;;;;;;20.79;82.67;95174.72;5027539;28;20654;-84
2021/06/29 15:13:55;;;;;;;1.63;1.02;;;;;;;20.54;78.12;95170.09;5022938;28;20209;-84
2021/06/29 15:16:26;;;;;;;1.77;0.80;;;;;;;20.40;76.96;95134.16;5021796;28;20701;-85
2021/06/29 15:18:52;;;;;;;3.45;1.33;;;;;;;19.96;79.88;95163.75;5028837;28;20249;-84
2021/06/29 15:21:34;;;;;;;1.70;1.10;;;;;;;19.63;78.91;95190.00;5011726;28;20210;-85
2021/06/29 15:26:59;;;;;;;1.17;0.75;;;;;;;18.89;77.53;95189.47;5028354;28;20222;-85
2021/06/29 15:29:28;;;;;;;1.33;0.75;;;;;;;18.64;79.67;95150.75;5030707;28;20255;-85
2021/06/29 15:31:59;;;;;;;0.77;0.77;;;;;;;18.55;81.47;95165.94;5021623;28;20229;-83
2021/06/29 15:34:29;;;;;;;1.27;0.85;;;;;;;18.48;80.89;95201.81;5012236;28;20209;-84
2021/06/29 15:36:57;;;;;;;2.78;0.73;;;;;;;18.37;78.64;95236.56;5012050;28;20697;-84
2021/06/29 15:39:59;;;;;;;2.13;1.05;;;;;;;18.50;79.99;95290.22;5012018;28;20245;-84
2021/06/29 15:42:37;;;;;;;1.27;0.80;;;;;;;18.58;78.25;95305.50;5011115;28;20202;-83
2021/06/29 15:45:13;;;;;;;1.55;0.70;;;;;;;18.59;77.70;95299.28;5028698;22;20199;-84
2021/06/29 15:48:37;;;;;;;1.67;1.00;;;;;;;18.63;77.64;95297.81;4973026;28;20227;-83
2021/06/29 15:51:04;;;;;;;2.80;0.82;;;;;;;18.61;76.91;95303.25;4957318;28;20204;-85
2021/06/29 15:53:33;;;;;;;1.35;0.95;;;;;;;18.65;76.39;95308.00;4977130;28;20204;-83
2021/06/29 15:56:36;;;;;;;1.58;0.80;;;;;;;18.69;78.08;95281.19;4976867;28;20250;-84
2021/06/29 15:59:29;;;;;;;2.47;2.08;;;;;;;18.71;76.81;95286.19;4976218;28;20690;-82
2021/06/29 16:02:00;;;;;;;0.90;0.90;;;;;;;18.80;75.40;95287.41;4976215;28;20238;-84
2021/06/29 16:04:50;;;;;;;1.50;1.00;;;;;;;18.80;74.90;95295.22;4974706;28;20610;-83
2021/06/29 16:07:21;;;;;;;1.75;1.13;;;;;;;18.79;74.98;95299.66;4968622;28;20215;-83
2021/06/29 16:09:59;;;;;;;1.80;1.08;;;;;;;18.85;73.94;95293.50;4973656;28;20283;-83
2021/06/29 16:12:37;;;;;;;1.30;1.10;;;;;;;18.88;76.49;95289.63;4974327;28;20282;-85
2021/06/29 16:15:08;;;;;;;1.23;0.82;;;;;;;19.05;73.54;95308.69;4976299;28;20295;-83
2021/06/29 16:17:39;;;;;;;2.03;1.00;;;;;;;19.00;73.20;95313.84;4972747;28;20192;-83
2021/06/29 16:22:50;;;;;;;1.05;0.90;;;;;;;18.97;73.04;95289.00;4969795;28;20668;-84
2021/06/29 16:32:17;;;;;;;1.13;1.08;;;;;;;18.87;77.55;95301.88;4900677;29;20691;-86
2021/06/29 16:34:53;;;;;;;1.98;1.75;;;;;;;19.07;75.03;95319.69;4890271;29;20215;-84
2021/06/29 16:37:33;;;;;;;1.08;0.82;;;;;;;19.16;72.58;95354.03;4890395;29;20217;-85
2021/06/29 16:40:02;;;;;;;1.50;1.10;;;;;;;19.24;72.45;95377.16;4892647;29;20233;-85
2021/06/29 16:42:44;;;;;;;0.90;0.90;;;;;;;19.04;72.52;95380.19;4908406;29;20211;-84
2021/06/29 16:45:22;;;;;;;1.00;0.90;;;;;;;19.18;73.33;95372.88;4963151;28;20220;-84
2021/06/29 16:50:34;;;;;;;1.25;1.00;;;;;;;19.24;75.18;95364.09;4961524;28;20208;-84
2021/06/29 16:59:32;;;;;;;2.15;1.27;;;;;;;18.88;74.36;95378.31;4897963;29;20244;-86
2021/06/29 17:05:07;;;;;;;1.63;1.08;;;;;;;18.93;74.99;95399.28;4934522;29;20209;-85
2021/06/29 17:22:16;;;;;;;2.47;1.10;;;;;;;19.05;77.60;95407.84;4808046;29;20212;-88
2021/06/29 18:26:25;;;;;;;1.30;1.20;;;;;;;19.77;73.77;95371.50;4854504;29;20236;-87
2021/06/29 18:48:53;;;;;;;1.65;1.38;;;;;;;19.75;73.50;95330.97;4817551;29;20538;-87
2021/06/29 18:57:54;;;;;;;;;;;;;;;;;;;;;
2021/06/29 19:01:08;;;;;;;;;;;;;;;;;;;;;
2021/06/29 19:31:07;;;;;;;2.75;1.25;;;;;;;19.60;72.24;95289.75;4864623;29;20208;-87
2021/06/29 20:11:18;;;;;;;;;;;;;;;;;;;;;
